ADDS METAR Data INFO
IDs: Format: Raw Decoded Include TAF

Data at: 0728 UTC 16 Jan 2018

METAR for:PADK (Adak (NAS), AK, US)
Text:PADK 160656Z AUTO 32011G18KT 10SM FEW049 01/M07 A2971 RMK AO2 SLP061 T00061067 FZRANO
Temperature: 0.6°C ( 33°F)
Dewpoint: -6.7°C ( 20°F) [RH = 58%]
Pressure (altimeter):29.71 inches Hg (1006.2 mb) [Sea level pressure: 1006.1 mb]
Winds:from the NW (320 degrees) at 13 MPH (11 knots; 5.7 m/s) gusting to 21 MPH (18 knots; 9.3 m/s)
Visibility:10 or more sm (16+ km)
Ceiling:at least 12,000 feet AGL
Clouds: few clouds at 4900 feet AGL
QC Flag:automated observation with no human augmentation
Text:PADK 160556Z AUTO 32009KT 10SM SCT036 00/M06 A2970 RMK AO2 SLP056 60000 T00001061 10011 20000 51028 FZRANO
Temperature: 0.0°C ( 32°F)
Dewpoint: -6.1°C ( 21°F) [RH = 63%]
Pressure (altimeter):29.70 inches Hg (1005.8 mb) [Sea level pressure: 1005.6 mb]
Winds:from the NW (320 degrees) at 10 MPH (9 knots; 4.6 m/s)
Visibility:10 or more sm (16+ km)
Ceiling:at least 12,000 feet AGL
Clouds: scattered clouds at 3600 feet AGL
QC Flag:automated observation with no human augmentation
Text:PADK 160456Z AUTO 32013KT 10SM FEW032 SCT041 BKN060 00/M06 A2967 RMK AO2 SLP047 T00001061 FZRANO
Temperature: 0.0°C ( 32°F)
Dewpoint: -6.1°C ( 21°F) [RH = 63%]
Pressure (altimeter):29.67 inches Hg (1004.8 mb) [Sea level pressure: 1004.7 mb]
Winds:from the NW (320 degrees) at 15 MPH (13 knots; 6.7 m/s)
Visibility:10 or more sm (16+ km)
Ceiling:6000 feet AGL
Clouds: few clouds at 3200 feet AGL, scattered clouds at 4100 feet AGL, broken clouds at 6000 feet AGL
QC Flag:automated observation with no human augmentation
Text:PADK 160356Z AUTO 33013KT 10SM FEW018 SCT041 BKN050 00/M05 A2965 RMK AO2 RAB0259E32UPB42E45SNB32E42 SLP039 P0000 T00001050 FZRANO
Temperature: 0.0°C ( 32°F)
Dewpoint: -5.0°C ( 23°F) [RH = 69%]
Pressure (altimeter):29.65 inches Hg (1004.1 mb) [Sea level pressure: 1003.9 mb]
Winds:from the NNW (330 degrees) at 15 MPH (13 knots; 6.7 m/s)
Visibility:10 or more sm (16+ km)
Ceiling:5000 feet AGL
Clouds: few clouds at 1800 feet AGL, scattered clouds at 4100 feet AGL, broken clouds at 5000 feet AGL
QC Flag:automated observation with no human augmentation
Text:PADK 160256Z AUTO 31007G17KT 10SM BKN045 BKN055 BKN095 01/M07 A2961 RMK AO2 UPE11 SLP027 P0000 60000 T00061072 53025 FZRANO
Temperature: 0.6°C ( 33°F)
Dewpoint: -7.2°C ( 19°F) [RH = 56%]
Pressure (altimeter):29.61 inches Hg (1002.8 mb) [Sea level pressure: 1002.7 mb]
Winds:from the NW (310 degrees) at 8 MPH (7 knots; 3.6 m/s) gusting to 20 MPH (17 knots; 8.7 m/s)
Visibility:10 or more sm (16+ km)
Ceiling:4500 feet AGL
Clouds: broken clouds at 4500 feet AGL, broken clouds at 5500 feet AGL, broken clouds at 9500 feet AGL
QC Flag:automated observation with no human augmentation
Text:PADK 160156Z AUTO 34011G16KT 10SM UP FEW027 BKN041 OVC060 01/M06 A2958 RMK AO2 UPB55 SLP017 P0000 T00111061 FZRANO
Temperature: 1.1°C ( 34°F)
Dewpoint: -6.1°C ( 21°F) [RH = 59%]
Pressure (altimeter):29.58 inches Hg (1001.8 mb) [Sea level pressure: 1001.7 mb]
Winds:from the NNW (340 degrees) at 13 MPH (11 knots; 5.7 m/s) gusting to 18 MPH (16 knots; 8.2 m/s)
Visibility:10 or more sm (16+ km)
Ceiling:4100 feet AGL
Clouds: few clouds at 2700 feet AGL, broken clouds at 4100 feet AGL, overcast cloud deck at 6000 feet AGL
Weather:UP (unknown precipitation)
QC Flag:automated observation with no human augmentation
Text:PADK 160142Z AUTO 33011KT 10SM FEW021 BKN042 OVC055 01/M07 A2958 RMK AO2 FZRANO
Temperature: 1.0°C ( 34°F)
Dewpoint: -7.0°C ( 19°F) [RH = 55%]
Pressure (altimeter):29.58 inches Hg (1001.8 mb)
Winds:from the NNW (330 degrees) at 13 MPH (11 knots; 5.7 m/s)
Visibility:10 or more sm (16+ km)
Ceiling:4200 feet AGL
Clouds: few clouds at 2100 feet AGL, broken clouds at 4200 feet AGL, overcast cloud deck at 5500 feet AGL
QC Flag:automated observation with no human augmentation

TAF for:PADK (Adak (NAS), AK, US)
Text:No data found